createdAt,value
2018-11-05T00:02:47.000Z,9.5
2018-11-05T00:07:47.914Z,9.5
2018-11-05T00:12:29.650Z,9.6
2018-11-05T00:17:28.411Z,9.5
2018-11-05T00:22:26.987Z,9.5
2018-11-05T00:27:27.673Z,9.4
2018-11-05T00:32:28.349Z,9.4
2018-11-05T00:37:27.106Z,9.5
2018-11-05T00:42:27.916Z,9.6
2018-11-05T00:47:28.454Z,9.7
2018-11-05T00:52:28.113Z,9.6
2018-11-05T00:57:27.214Z,9.6
2018-11-05T01:02:27.453Z,9.6
2018-11-05T01:07:28.441Z,9.7
2018-11-05T01:12:28.385Z,9.7
2018-11-05T01:17:28.546Z,9.6
2018-11-05T01:22:27.676Z,9.7
2018-11-05T01:27:28.142Z,9.9
2018-11-05T01:32:27.669Z,9.8
2018-11-05T01:37:27.813Z,9.9
2018-11-05T01:42:27.334Z,9.8
2018-11-05T01:47:28.262Z,9.8
2018-11-05T01:52:27.741Z,9.9
2018-11-05T01:57:27.832Z,9.9
2018-11-05T02:02:28.229Z,10.0
2018-11-05T02:07:27.733Z,10.1
2018-11-05T02:12:27.825Z,10.2
2018-11-05T02:17:28.023Z,10.1
2018-11-05T02:22:27.754Z,10.2
2018-11-05T02:27:27.416Z,10.2
2018-11-05T02:32:27.321Z,10.2
2018-11-05T02:37:27.738Z,10.2
2018-11-05T02:42:28.071Z,10.2
2018-11-05T02:47:29.240Z,10.2
2018-11-05T02:52:27.941Z,10.2
2018-11-05T02:57:27.523Z,10.2
2018-11-05T03:02:27.397Z,10.0
2018-11-05T03:07:27.681Z,9.9
2018-11-05T03:12:27.423Z,9.9
2018-11-05T03:17:27.533Z,9.9
2018-11-05T03:22:27.924Z,9.9
2018-11-05T03:27:29.732Z,9.9
2018-11-05T03:32:28.325Z,10.0
2018-11-05T03:37:27.815Z,10.0
2018-11-05T03:42:27.905Z,10.0
2018-11-05T03:47:28.228Z,9.9
2018-11-05T03:52:28.206Z,9.6
2018-11-05T03:57:28.063Z,9.7
2018-11-05T04:02:27.146Z,9.7
2018-11-05T04:07:28.132Z,9.8
2018-11-05T04:12:27.825Z,9.8
2018-11-05T04:17:27.735Z,9.8
2018-11-05T04:22:27.942Z,9.7
2018-11-05T04:27:30.439Z,9.8
2018-11-05T04:32:28.336Z,9.6
2018-11-05T04:37:28.104Z,9.6
2018-11-05T04:42:27.342Z,9.5
2018-11-05T04:47:28.104Z,9.4
2018-11-05T04:52:27.645Z,9.3
2018-11-05T04:57:28.594Z,9.0
2018-11-05T05:02:27.808Z,9.0
2018-11-05T05:07:28.432Z,8.9
2018-11-05T05:12:27.173Z,8.8
2018-11-05T05:17:28.031Z,8.8
2018-11-05T05:22:27.848Z,8.8
2018-11-05T05:27:27.593Z,8.6
2018-11-05T05:32:28.039Z,8.6
2018-11-05T05:37:27.825Z,8.7
2018-11-05T05:42:27.697Z,8.6
2018-11-05T05:47:28.442Z,8.7
2018-11-05T05:52:28.046Z,8.7
2018-11-05T05:57:28.000Z,8.9
2018-11-05T06:02:27.715Z,9.0
2018-11-05T06:07:27.733Z,9.1
2018-11-05T06:12:27.332Z,9.2
2018-11-05T06:17:28.365Z,9.0
2018-11-05T06:22:28.398Z,8.8
2018-11-05T06:27:28.166Z,8.8
2018-11-05T06:32:28.387Z,8.7
2018-11-05T06:37:28.055Z,8.6
2018-11-05T06:42:28.669Z,8.4
2018-11-05T06:47:28.210Z,8.4
2018-11-05T06:52:28.622Z,8.5
2018-11-05T06:57:28.452Z,8.5
2018-11-05T07:02:28.705Z,8.5
2018-11-05T07:07:28.261Z,8.5
2018-11-05T07:12:28.076Z,8.5
2018-11-05T07:17:29.118Z,8.4
2018-11-05T07:22:28.503Z,8.4
2018-11-05T07:27:27.931Z,8.4
2018-11-05T07:32:28.916Z,8.6
2018-11-05T07:37:28.435Z,8.5
2018-11-05T07:42:29.242Z,8.7
2018-11-05T07:47:28.877Z,8.8
2018-11-05T07:52:29.549Z,8.9
2018-11-05T07:57:28.563Z,9.1
2018-11-05T08:02:28.367Z,9.6
2018-11-05T08:07:28.544Z,9.5
2018-11-05T08:12:28.410Z,10.0
2018-11-05T08:17:28.378Z,10.0
2018-11-05T08:22:28.717Z,10.2
2018-11-05T08:27:27.946Z,10.6
2018-11-05T08:32:28.778Z,10.5
2018-11-05T08:37:28.203Z,10.9
2018-11-05T08:42:28.996Z,10.9
2018-11-05T08:47:28.961Z,11.1
2018-11-05T08:52:28.029Z,11.3
2018-11-05T08:57:28.319Z,11.6
2018-11-05T09:02:28.458Z,11.9
2018-11-05T09:07:27.892Z,12.0
2018-11-05T09:12:28.145Z,12.4
2018-11-05T09:17:28.458Z,12.4
2018-11-05T09:22:28.658Z,12.6
2018-11-05T09:27:28.343Z,12.7
2018-11-05T09:32:28.389Z,12.7
2018-11-05T09:37:28.944Z,12.8
2018-11-05T09:42:28.015Z,13.0
2018-11-05T09:47:28.746Z,13.1
2018-11-05T09:52:28.067Z,13.3
2018-11-05T09:57:27.871Z,13.4
2018-11-05T10:02:28.666Z,13.6
2018-11-05T10:07:28.684Z,13.6
2018-11-05T10:12:29.010Z,13.4
2018-11-05T10:17:28.442Z,13.4
2018-11-05T10:22:29.398Z,13.7
2018-11-05T10:27:27.932Z,14.1
2018-11-05T10:32:28.081Z,14.9
2018-11-05T10:37:28.318Z,14.9
2018-11-05T10:42:28.605Z,15.3
2018-11-05T10:47:28.677Z,15.6
2018-11-05T10:52:29.090Z,15.9
2018-11-05T10:57:28.681Z,16.4
2018-11-05T11:02:29.020Z,17.1
2018-11-05T11:07:28.462Z,17.8
2018-11-05T11:12:28.979Z,18.0
2018-11-05T11:17:28.286Z,18.2
2018-11-05T11:22:27.773Z,18.3
2018-11-05T11:27:29.115Z,18.5
2018-11-05T11:32:28.383Z,18.4
2018-11-05T11:37:28.858Z,18.6
2018-11-05T11:42:28.458Z,18.6
2018-11-05T11:47:27.886Z,19.3
2018-11-05T11:52:28.495Z,20.3
2018-11-05T11:57:28.105Z,20.5
2018-11-05T12:02:29.016Z,20.5
2018-11-05T12:07:28.379Z,20.8
2018-11-05T12:12:28.713Z,20.9
2018-11-05T12:17:28.576Z,21.0
2018-11-05T12:22:28.670Z,20.9
2018-11-05T12:27:27.621Z,21.0
2018-11-05T12:32:29.605Z,20.9
2018-11-05T12:37:28.223Z,21.0
2018-11-05T12:42:27.899Z,21.2
2018-11-05T12:47:28.184Z,21.3
2018-11-05T12:52:28.683Z,21.6
2018-11-05T12:57:28.478Z,22.0
2018-11-05T13:02:28.363Z,22.4
2018-11-05T13:07:28.635Z,22.6
2018-11-05T13:12:28.809Z,22.5
2018-11-05T13:17:28.538Z,22.9
2018-11-05T13:22:28.993Z,23.2
2018-11-05T13:27:27.866Z,23.8
2018-11-05T13:32:28.216Z,24.4
2018-11-05T13:37:29.068Z,25.1
2018-11-05T13:42:29.159Z,25.7
2018-11-05T13:47:29.649Z,26.3
2018-11-05T13:52:28.920Z,27.0
2018-11-05T13:57:28.268Z,27.5
2018-11-05T14:02:29.068Z,28.3
2018-11-05T14:07:28.042Z,29.2
2018-11-05T14:12:28.797Z,30.0
2018-11-05T14:17:28.776Z,30.8
2018-11-05T14:22:28.889Z,31.5
2018-11-05T14:27:28.955Z,33.0
2018-11-05T14:32:27.834Z,33.0
2018-11-05T14:37:28.956Z,33.5
2018-11-05T14:42:28.490Z,33.5
2018-11-05T14:47:28.240Z,33.1
2018-11-05T14:52:28.066Z,32.5
2018-11-05T14:57:28.482Z,33.6
2018-11-05T15:02:28.560Z,30.6
2018-11-05T15:07:29.247Z,30.0
2018-11-05T15:12:28.825Z,31.7
2018-11-05T15:17:32.695Z,33.2
2018-11-05T15:22:28.408Z,33.2
2018-11-05T15:27:29.367Z,33.2
2018-11-05T15:32:28.727Z,32.0
2018-11-05T15:37:28.289Z,31.9
2018-11-05T15:42:27.991Z,31.0
2018-11-05T15:47:28.278Z,29.9
2018-11-05T15:52:27.950Z,28.5
2018-11-05T15:57:28.059Z,26.3
2018-11-05T16:02:28.387Z,24.6
2018-11-05T16:07:28.601Z,23.2
2018-11-05T16:12:27.748Z,22.1
2018-11-05T16:17:28.828Z,21.1
2018-11-05T16:22:28.972Z,20.4
2018-11-05T16:27:28.185Z,19.7
2018-11-05T16:32:28.072Z,18.8
2018-11-05T16:37:28.302Z,18.7
2018-11-05T16:42:27.616Z,17.9
2018-11-05T16:47:28.181Z,17.5
2018-11-05T16:52:28.015Z,17.4
2018-11-05T16:57:27.976Z,16.5
2018-11-05T17:02:27.813Z,16.5
2018-11-05T17:07:28.322Z,16.2
2018-11-05T17:12:27.891Z,15.7
2018-11-05T17:17:27.914Z,15.3
2018-11-05T17:22:27.446Z,15.1
2018-11-05T17:27:28.295Z,15.0
2018-11-05T17:32:27.901Z,14.8
2018-11-05T17:37:29.707Z,14.6
2018-11-05T17:42:27.627Z,14.1
2018-11-05T17:47:28.045Z,13.6
2018-11-05T17:52:27.669Z,13.5
2018-11-05T17:57:28.177Z,13.4
2018-11-05T18:02:27.774Z,13.3
2018-11-05T18:07:27.772Z,13.2
2018-11-05T18:12:28.273Z,13.1
2018-11-05T18:17:28.436Z,13.0
2018-11-05T18:22:29.033Z,12.9
2018-11-05T18:27:27.606Z,12.7
2018-11-05T18:32:27.650Z,12.4
2018-11-05T18:37:28.336Z,12.2
2018-11-05T18:42:27.981Z,12.1
2018-11-05T18:47:27.816Z,12.0
2018-11-05T18:52:28.241Z,11.8
2018-11-05T18:57:27.927Z,11.7
2018-11-05T19:02:28.018Z,11.6
2018-11-05T19:07:28.190Z,11.5
2018-11-05T19:12:28.430Z,11.4
2018-11-05T19:17:28.240Z,11.2
2018-11-05T19:22:28.116Z,11.2
2018-11-05T19:27:28.455Z,22.5
2018-11-05T19:32:28.367Z,11.1
2018-11-05T19:37:27.625Z,11.1
2018-11-05T19:42:28.099Z,11.1
2018-11-05T19:47:28.293Z,11.0
2018-11-05T19:52:27.805Z,10.9
2018-11-05T19:57:27.375Z,10.8
2018-11-05T20:02:28.101Z,10.9
2018-11-05T20:07:27.983Z,10.6
2018-11-05T20:12:28.767Z,10.5
2018-11-05T20:17:28.184Z,10.4
2018-11-05T20:22:27.606Z,10.3
2018-11-05T20:27:27.569Z,10.2
2018-11-05T20:32:28.052Z,10.1
2018-11-05T20:37:27.370Z,10.1
2018-11-05T20:42:27.521Z,10.0
2018-11-05T20:47:27.963Z,10.1
2018-11-05T20:52:28.010Z,10.0
2018-11-05T20:57:27.484Z,10.0
2018-11-05T21:02:27.766Z,10.0
2018-11-05T21:07:28.418Z,10.0
2018-11-05T21:12:27.364Z,10.1
2018-11-05T21:17:28.102Z,10.1
2018-11-05T21:22:28.085Z,10.1
2018-11-05T21:27:27.889Z,10.1
2018-11-05T21:32:28.457Z,10.1
2018-11-05T21:37:28.686Z,9.7
2018-11-05T21:42:27.807Z,9.7
2018-11-05T21:47:28.586Z,9.5
2018-11-05T21:52:27.554Z,9.5
2018-11-05T21:57:27.667Z,9.4
2018-11-05T22:02:27.818Z,9.4
2018-11-05T22:07:27.572Z,9.2
2018-11-05T22:12:29.093Z,9.2
2018-11-05T22:17:28.813Z,9.2
2018-11-05T22:22:28.777Z,9.2
2018-11-05T22:27:29.526Z,9.2
2018-11-05T22:32:28.590Z,9.2
2018-11-05T22:37:28.765Z,9.1
2018-11-05T22:42:28.413Z,8.9
2018-11-05T22:47:28.417Z,8.6
2018-11-05T22:52:28.129Z,8.6
2018-11-05T22:57:27.565Z,8.5
2018-11-05T23:02:28.138Z,8.4
2018-11-05T23:07:28.369Z,8.5
2018-11-05T23:12:27.529Z,8.5
2018-11-05T23:23:06.157Z,8.3
2018-11-05T23:28:03.281Z,8.2
2018-11-05T23:33:04.725Z,8.0
2018-11-05T23:38:04.592Z,8.0
2018-11-05T23:43:03.560Z,7.9
2018-11-05T23:48:04.268Z,7.8
2018-11-05T23:53:03.550Z,7.7
2018-11-05T23:58:04.762Z,7.8
